createdAt,value
2019-04-21T00:03:07.353Z,49.61
2019-04-21T00:08:46.937Z,49.51
2019-04-21T00:13:33.152Z,50.23
2019-04-21T00:19:08.136Z,50.52
2019-04-21T00:24:31.439Z,50.00
2019-04-21T00:34:30.186Z,50.84
2019-04-21T00:40:02.159Z,50.87
2019-04-21T00:44:58.695Z,51.48
2019-04-21T00:50:10.854Z,51.62
2019-04-21T00:55:45.895Z,52.14
2019-04-21T01:00:36.361Z,51.90
2019-04-21T01:05:42.839Z,52.47
2019-04-21T01:10:40.513Z,52.41
2019-04-21T01:15:53.129Z,52.17
2019-04-21T01:20:41.590Z,53.14
2019-04-21T01:26:03.153Z,52.27
2019-04-21T01:31:13.666Z,53.07
2019-04-21T01:36:24.170Z,52.96
2019-04-21T01:41:33.654Z,53.30
2019-04-21T01:46:33.664Z,53.22
2019-04-21T01:52:02.751Z,53.92
2019-04-21T01:57:02.105Z,53.32
2019-04-21T02:02:11.063Z,54.31
2019-04-21T02:07:25.007Z,54.26
2019-04-21T02:12:33.388Z,54.02
2019-04-21T02:17:34.244Z,53.93
2019-04-21T02:27:59.225Z,54.19
2019-04-21T02:33:26.045Z,54.32
2019-04-21T02:38:34.468Z,54.19
2019-04-21T02:43:25.709Z,54.10
2019-04-21T02:48:45.035Z,54.47
2019-04-21T02:54:27.946Z,54.78
2019-04-21T02:59:02.465Z,55.01
2019-04-21T03:04:34.915Z,55.60
2019-04-21T03:14:56.143Z,55.69
2019-04-21T03:30:29.398Z,56.43
2019-04-21T03:40:40.959Z,56.96
2019-04-21T03:45:49.111Z,56.05
2019-04-21T03:51:04.775Z,56.60
2019-04-21T04:06:38.796Z,56.63
2019-04-21T04:11:49.554Z,56.54
2019-04-21T04:16:57.249Z,56.11
2019-04-21T04:27:20.860Z,56.45
2019-04-21T04:32:29.240Z,56.24
2019-04-21T04:47:51.350Z,54.42
2019-04-21T04:53:09.562Z,52.80
2019-04-21T04:58:11.107Z,52.45
2019-04-21T05:03:18.925Z,52.21
2019-04-21T05:08:37.907Z,53.73
2019-04-21T05:13:26.509Z,52.08
2019-04-21T05:18:48.922Z,52.18
2019-04-21T05:23:31.370Z,50.01
2019-04-21T05:28:37.002Z,50.71
2019-04-21T05:34:03.703Z,49.65
2019-04-21T05:39:21.563Z,48.19
2019-04-21T05:44:37.978Z,48.79
2019-04-21T05:50:02.432Z,46.23
2019-04-21T05:55:12.334Z,47.35
2019-04-21T06:00:23.673Z,46.22
2019-04-21T06:10:34.702Z,46.43
2019-04-21T06:15:48.410Z,43.42
2019-04-21T06:20:54.590Z,41.49
2019-04-21T06:26:27.971Z,40.13
2019-04-21T06:31:12.671Z,39.62
2019-04-21T06:36:36.146Z,40.30
2019-04-21T06:41:33.860Z,37.72
2019-04-21T06:46:46.009Z,36.33
2019-04-21T06:52:07.538Z,39.48
2019-04-21T06:57:06.849Z,37.76
2019-04-21T07:02:30.671Z,35.00
2019-04-21T07:07:19.103Z,34.78
2019-04-21T07:12:27.546Z,35.40
2019-04-21T07:17:38.981Z,33.64
2019-04-21T07:22:48.072Z,33.37
2019-04-21T07:27:59.359Z,33.18
2019-04-21T07:33:21.956Z,31.38
2019-04-21T07:38:19.204Z,31.33
2019-04-21T07:43:22.188Z,31.93
2019-04-21T07:48:43.535Z,29.53
2019-04-21T07:54:02.325Z,29.72
2019-04-21T07:59:03.801Z,29.57
2019-04-21T08:04:40.950Z,30.17
2019-04-21T08:09:26.085Z,30.22
2019-04-21T08:14:44.117Z,28.17
2019-04-21T08:19:43.305Z,26.69
2019-04-21T08:24:59.369Z,27.05
2019-04-21T08:30:04.725Z,26.95
2019-04-21T08:40:40.917Z,25.34
2019-04-21T08:45:44.562Z,26.01
2019-04-21T08:50:58.640Z,24.75
2019-04-21T08:56:27.353Z,26.93
2019-04-21T09:02:06.325Z,25.39
2019-04-21T09:07:21.358Z,25.28
2019-04-21T09:12:21.235Z,24.46
2019-04-21T09:17:28.492Z,23.47
2019-04-21T09:22:45.714Z,22.80
2019-04-21T09:27:47.009Z,24.32
2019-04-21T09:32:42.453Z,23.84
2019-04-21T09:37:53.470Z,23.27
2019-04-21T09:43:09.414Z,22.47
2019-04-21T09:48:17.566Z,21.17
2019-04-21T09:53:29.460Z,21.81
2019-04-21T09:58:41.974Z,22.51
2019-04-21T10:03:53.697Z,21.65
2019-04-21T10:09:03.760Z,20.78
2019-04-21T10:14:05.743Z,20.29
2019-04-21T10:19:17.536Z,20.18
2019-04-21T10:24:26.386Z,19.16
2019-04-21T10:29:33.388Z,20.33
2019-04-21T10:34:45.181Z,18.95
2019-04-21T10:39:51.996Z,20.22
2019-04-21T10:45:05.100Z,20.08
2019-04-21T10:50:13.266Z,19.18
2019-04-21T10:55:40.432Z,18.81
2019-04-21T11:00:28.118Z,19.59
2019-04-21T11:05:34.632Z,20.30
2019-04-21T11:10:43.893Z,18.59
2019-04-21T11:15:50.901Z,18.21
2019-04-21T11:21:00.801Z,18.23
2019-04-21T11:26:10.073Z,19.70
2019-04-21T11:31:20.789Z,18.46
2019-04-21T11:36:33.222Z,19.16
2019-04-21T11:41:39.407Z,18.74
2019-04-21T11:46:46.685Z,18.96
2019-04-21T11:51:56.715Z,19.91
2019-04-21T11:57:12.494Z,20.00
2019-04-21T12:02:15.200Z,18.86
2019-04-21T12:07:25.047Z,19.47
2019-04-21T12:12:35.120Z,19.09
2019-04-21T12:17:44.029Z,20.27
2019-04-21T12:23:12.192Z,19.16
2019-04-21T12:28:27.955Z,20.58
2019-04-21T12:34:05.678Z,20.41
2019-04-21T12:39:17.154Z,20.11
2019-04-21T12:44:27.835Z,20.36
2019-04-21T12:49:41.343Z,19.80
2019-04-21T13:00:00.517Z,20.89
2019-04-21T13:05:09.426Z,20.24
2019-04-21T13:10:20.199Z,20.49
2019-04-21T13:15:29.508Z,22.06
2019-04-21T13:20:38.177Z,21.48
2019-04-21T13:25:45.686Z,20.52
2019-04-21T13:30:52.012Z,20.71
2019-04-21T13:35:59.347Z,19.60
2019-04-21T13:41:41.499Z,19.47
2019-04-21T13:46:38.594Z,20.29
2019-04-21T13:51:50.076Z,18.99
2019-04-21T13:56:58.646Z,18.91
2019-04-21T14:02:06.759Z,20.55
2019-04-21T14:07:14.335Z,20.07
2019-04-21T14:12:21.192Z,19.78
2019-04-21T14:17:29.002Z,19.91
2019-04-21T14:22:35.995Z,20.98
2019-04-21T14:27:42.395Z,20.43
2019-04-21T14:32:49.838Z,20.85
2019-04-21T14:37:56.546Z,20.83
2019-04-21T14:43:02.680Z,20.75
2019-04-21T14:48:27.426Z,19.93
2019-04-21T14:53:51.928Z,20.73
2019-04-21T14:58:59.503Z,21.94
2019-04-21T15:04:08.018Z,22.02
2019-04-21T15:09:15.353Z,22.05
2019-04-21T15:14:22.219Z,21.61
2019-04-21T15:24:36.262Z,21.00
2019-04-21T15:29:48.777Z,22.26
2019-04-21T15:34:54.446Z,22.88
2019-04-21T15:40:11.303Z,22.65
2019-04-21T15:45:08.497Z,22.67
2019-04-21T15:50:17.743Z,22.34
2019-04-21T15:55:41.123Z,22.77
2019-04-21T16:00:52.432Z,22.27
2019-04-21T16:05:59.403Z,22.22
2019-04-21T16:11:11.387Z,22.36
2019-04-21T16:16:18.099Z,22.06
2019-04-21T16:21:24.373Z,23.73
2019-04-21T16:26:30.679Z,22.55
2019-04-21T16:31:38.345Z,22.19
2019-04-21T16:36:45.639Z,22.69
2019-04-21T16:41:52.612Z,23.10
2019-04-21T16:46:59.330Z,23.59
2019-04-21T16:52:28.116Z,23.45
2019-04-21T16:57:41.880Z,24.15
2019-04-21T17:02:48.313Z,24.02
2019-04-21T17:07:55.650Z,24.32
2019-04-21T17:13:02.308Z,24.69
2019-04-21T17:18:29.972Z,24.76
2019-04-21T17:23:17.609Z,25.28
2019-04-21T17:28:23.587Z,25.48
2019-04-21T17:33:33.735Z,25.08
2019-04-21T17:38:40.235Z,25.33
2019-04-21T17:43:45.817Z,25.90
2019-04-21T17:48:52.675Z,26.84
2019-04-21T17:54:18.635Z,27.27
2019-04-21T17:59:51.027Z,27.69
2019-04-21T18:04:49.337Z,28.48
2019-04-21T18:10:00.893Z,28.41
2019-04-21T18:15:00.097Z,29.10
2019-04-21T18:19:59.675Z,30.65
2019-04-21T18:25:24.213Z,30.12
2019-04-21T18:31:02.127Z,30.80
2019-04-21T18:36:45.486Z,31.17
2019-04-21T18:42:18.930Z,31.86
2019-04-21T18:47:43.642Z,32.25
2019-04-21T18:52:55.572Z,32.56
2019-04-21T18:57:49.432Z,32.53
2019-04-21T19:02:56.667Z,32.81
2019-04-21T19:08:18.809Z,32.89
2019-04-21T19:13:44.179Z,33.39
2019-04-21T19:19:04.103Z,33.95
2019-04-21T19:23:55.735Z,34.80
2019-04-21T19:29:16.314Z,34.79
2019-04-21T19:34:08.355Z,35.43
2019-04-21T19:39:23.394Z,35.58
2019-04-21T19:44:45.498Z,36.01
2019-04-21T19:49:55.136Z,36.42
2019-04-21T19:54:45.462Z,37.08
2019-04-21T19:59:54.947Z,37.09
2019-04-21T20:05:08.830Z,37.78
2019-04-21T20:10:33.447Z,37.87
2019-04-21T20:15:42.152Z,38.39
2019-04-21T20:20:28.998Z,39.04
2019-04-21T20:25:44.316Z,39.70
2019-04-21T20:31:06.694Z,39.51
2019-04-21T20:36:15.879Z,39.89
2019-04-21T20:41:19.617Z,40.55
2019-04-21T20:46:25.399Z,41.18
2019-04-21T20:51:35.895Z,41.25
2019-04-21T20:56:45.228Z,41.41
2019-04-21T21:01:52.217Z,41.70
2019-04-21T21:07:01.959Z,41.79
2019-04-21T21:12:24.706Z,42.30
2019-04-21T21:17:34.485Z,42.61
2019-04-21T21:22:16.531Z,42.50
2019-04-21T21:27:26.797Z,42.40
2019-04-21T21:32:38.472Z,42.85
2019-04-21T21:37:49.255Z,42.92
2019-04-21T21:42:40.673Z,43.64
2019-04-21T21:48:01.042Z,44.18
2019-04-21T21:53:00.580Z,44.52
2019-04-21T21:58:03.497Z,44.99
2019-04-21T22:03:20.981Z,45.29
2019-04-21T22:08:20.663Z,45.57
2019-04-21T22:13:36.311Z,45.81
2019-04-21T22:18:51.174Z,46.25
2019-04-21T22:23:54.821Z,46.52
2019-04-21T22:28:51.819Z,46.85
2019-04-21T22:34:05.391Z,46.99
2019-04-21T22:39:28.426Z,47.48
2019-04-21T22:44:22.692Z,47.78
2019-04-21T22:49:32.606Z,48.14
2019-04-21T22:54:44.517Z,48.63
2019-04-21T22:59:54.968Z,48.68
2019-04-21T23:04:58.246Z,48.73
2019-04-21T23:10:03.599Z,49.18
2019-04-21T23:15:15.314Z,49.54
2019-04-21T23:20:39.386Z,50.28
2019-04-21T23:25:42.553Z,50.15
2019-04-21T23:30:56.524Z,50.03
2019-04-21T23:35:47.761Z,50.43
2019-04-21T23:40:59.816Z,50.82
2019-04-21T23:46:13.231Z,50.61
2019-04-21T23:51:25.430Z,50.89
2019-04-21T23:56:29.184Z,51.22
